Time;durP1;ratioP1;P1;durP2;ratioP2;P2;SDS_P1;SDS_P2;PMS_P1;PMS_P2;Temp;Humidity;BMP_temperature;BMP_pressure;BME280_temperature;BME280_humidity;BME280_pressure;Samples;Min_cycle;Max_cycle;Signal;HPM_P1;HPM_P2
2022/01/05 00:00:45;;;;;;;6.80;6.10;;;4.10;94.20;;;2.62;96.64;96377.44;5067519;28;20480;-79
2022/01/05 00:03:12;;;;;;;4.53;4.13;;;4.10;95.50;;;2.67;96.73;96385.66;5091988;28;20468;-79
2022/01/05 00:05:39;;;;;;;3.70;3.40;;;4.10;97.10;;;2.72;97.01;96385.03;5076468;28;20536;-80
2022/01/05 00:08:08;;;;;;;4.40;4.00;;;4.10;97.00;;;2.68;96.88;96373.97;5103484;28;20475;-77
2022/01/05 00:10:35;;;;;;;5.50;4.90;;;4.20;96.20;;;2.66;96.79;96387.50;5105588;28;20448;-78
2022/01/05 00:13:02;;;;;;;5.10;4.60;;;4.20;97.00;;;2.67;97.11;96375.00;5090957;28;20475;-76
2022/01/05 00:15:29;;;;;;;5.53;4.60;;;4.10;96.70;;;2.66;96.98;96384.03;5110407;28;20470;-76
2022/01/05 00:17:56;;;;;;;5.63;5.13;;;4.20;96.00;;;2.61;96.15;96365.97;5105061;28;20831;-74
2022/01/05 00:20:24;;;;;;;4.90;4.30;;;4.20;95.00;;;2.61;96.25;96362.47;5104365;28;20517;-79
2022/01/05 00:22:52;;;;;;;4.37;3.97;;;4.10;95.10;;;2.66;95.30;96373.34;5078014;28;20521;-75
2022/01/05 00:25:21;;;;;;;4.03;3.40;;;4.10;94.60;;;2.71;95.20;96373.56;5069315;28;20528;-78
2022/01/05 00:27:48;;;;;;;4.03;3.70;;;4.20;93.90;;;2.43;95.39;96374.56;5075673;28;20551;-75
2022/01/05 00:30:15;;;;;;;3.77;3.47;;;4.10;94.10;;;2.58;95.84;96387.72;5089186;28;20759;-79
2022/01/05 00:32:42;;;;;;;3.90;3.50;;;4.10;94.10;;;2.53;96.33;96391.00;5087762;28;20475;-77
2022/01/05 00:35:10;;;;;;;4.60;4.20;;;4.10;95.30;;;2.54;96.30;96391.78;5081132;28;20463;-80
2022/01/05 00:37:37;;;;;;;5.13;3.93;;;4.00;95.40;;;2.50;96.32;96385.22;5089326;28;20967;-78
2022/01/05 00:40:04;;;;;;;4.23;3.83;;;4.00;95.30;;;2.70;95.80;96382.59;5083969;28;20509;-77
2022/01/05 00:42:33;;;;;;;5.27;4.20;;;4.10;96.00;;;2.08;96.35;96287.59;5082019;28;20453;-78
2022/01/05 00:45:00;;;;;;;4.50;4.10;;;4.10;96.50;;;2.63;96.45;96382.56;5087092;28;20468;-75
2022/01/05 00:47:27;;;;;;;5.13;4.67;;;4.20;95.50;;;2.59;97.10;96376.03;5086241;28;20463;-77
2022/01/05 00:49:54;;;;;;;5.07;4.57;;;4.10;96.70;;;2.61;97.47;96381.97;5085707;28;20484;-78
2022/01/05 00:52:22;;;;;;;5.47;4.97;;;4.10;97.10;;;2.67;97.94;96372.31;5088832;28;20539;-77
2022/01/05 00:54:49;;;;;;;6.33;5.53;;;4.20;98.20;;;2.58;97.48;96386.88;5095632;28;20477;-76
2022/01/05 00:57:16;;;;;;;5.13;4.63;;;4.10;97.00;;;2.54;97.16;96376.63;5099142;28;20468;-76
2022/01/05 00:59:44;;;;;;;4.40;4.00;;;4.10;97.50;;;2.61;97.43;96375.81;5092319;28;20468;-76
2022/01/05 01:02:11;;;;;;;4.70;4.00;;;4.10;97.20;;;2.61;97.21;96379.31;5091206;28;20449;-74
2022/01/05 01:04:38;;;;;;;4.80;3.87;;;4.10;97.50;;;2.60;98.06;96385.66;5088799;28;20853;-77
2022/01/05 01:07:05;;;;;;;4.70;4.30;;;4.10;98.50;;;2.45;97.87;96377.84;5086322;28;21090;-77
2022/01/05 01:09:32;;;;;;;4.87;4.30;;;4.10;97.20;;;2.63;97.99;96400.41;5098991;28;20800;-77
2022/01/05 01:11:59;;;;;;;5.20;4.70;;;4.10;98.70;;;2.64;98.53;96396.72;5085981;28;20502;-75
2022/01/05 01:14:26;;;;;;;6.13;4.07;;;4.10;99.20;;;2.59;98.38;96394.69;5087855;28;20935;-78
2022/01/05 01:16:55;;;;;;;4.50;4.10;;;4.10;99.10;;;2.75;97.87;96380.09;5085342;28;20797;-76
2022/01/05 01:19:21;;;;;;;5.07;4.40;;;4.20;99.50;;;2.53;98.10;96369.66;5085427;28;20521;-76
2022/01/05 01:21:49;;;;;;;4.07;3.60;;;4.10;98.90;;;2.46;98.29;96384.00;5100074;28;20456;-77
2022/01/05 01:24:16;;;;;;;5.57;5.03;;;4.00;98.60;;;2.45;98.85;96387.69;5085421;28;20513;-77
2022/01/05 01:26:43;;;;;;;4.87;4.00;;;4.00;99.90;;;2.36;98.64;96363.91;5082441;28;20550;-78
2022/01/05 01:29:10;;;;;;;5.53;4.10;;;4.00;99.90;;;2.51;99.01;96376.22;5086324;28;20452;-78
2022/01/05 01:31:37;;;;;;;5.70;5.10;;;4.00;99.90;;;2.61;99.25;96365.13;5082398;28;20456;-77
2022/01/05 01:34:05;;;;;;;6.30;5.27;;;4.10;99.90;;;2.63;98.69;96350.56;5089227;28;20474;-77
2022/01/05 01:36:32;;;;;;;6.17;5.17;;;4.10;99.90;;;2.60;98.73;96332.31;5068989;28;20443;-75
2022/01/05 01:38:59;;;;;;;5.50;4.30;;;4.10;99.90;;;2.49;98.80;96325.75;5071032;28;20551;-76
2022/01/05 01:41:27;;;;;;;5.07;4.13;;;4.00;99.90;;;2.61;99.20;96341.13;5066503;28;20471;-75
2022/01/05 01:43:54;;;;;;;4.50;4.07;;;4.10;99.90;;;2.70;98.79;96337.25;5086121;28;20455;-75
2022/01/05 01:46:22;;;;;;;6.93;4.80;;;4.10;99.90;;;2.61;99.17;96333.13;5084241;28;20468;-74
2022/01/05 01:48:49;;;;;;;4.37;3.97;;;4.10;99.90;;;2.55;99.25;96324.94;5089346;28;20480;-75
2022/01/05 01:51:17;;;;;;;5.03;4.50;;;4.10;99.90;;;2.60;99.59;96323.50;5070436;28;20808;-75
2022/01/05 01:53:45;;;;;;;6.00;5.10;;;4.10;99.90;;;2.60;98.90;96318.16;5086542;28;20457;-75
2022/01/05 01:56:13;;;;;;;5.40;4.20;;;4.10;99.90;;;2.67;99.46;96316.31;5084554;28;21260;-75
2022/01/05 01:58:41;;;;;;;4.60;4.20;;;4.10;99.90;;;2.36;99.50;96278.59;5083776;28;20459;-77
2022/01/05 02:01:08;;;;;;;4.87;4.37;;;4.10;99.90;;;2.66;98.94;96310.16;5081196;28;20459;-76
2022/01/05 02:03:35;;;;;;;4.47;4.07;;;4.10;99.90;;;2.58;98.80;96293.56;5089177;28;20828;-75
2022/01/05 02:06:02;;;;;;;5.17;4.67;;;4.20;99.90;;;2.65;98.88;96315.69;5085342;28;20475;-76
2022/01/05 02:08:30;;;;;;;5.13;4.63;;;4.20;99.90;;;2.66;98.78;96336.03;5059099;28;21213;-75
2022/01/05 02:10:57;;;;;;;4.87;4.40;;;4.10;99.90;;;2.69;99.85;96324.94;5079079;28;20460;-75
2022/01/05 02:13:24;;;;;;;5.70;5.20;;;4.10;99.90;;;2.73;99.19;96328.81;5091229;28;20942;-75
2022/01/05 02:15:51;;;;;;;4.47;4.03;;;4.20;99.90;;;2.66;99.34;96318.16;5076668;28;20468;-76
2022/01/05 02:21:05;;;;;;;4.90;4.23;;;4.30;99.90;;;2.85;98.50;96339.66;5066747;28;20464;-76
2022/01/05 02:23:33;;;;;;;4.93;4.43;;;4.30;99.90;;;2.77;99.02;96339.91;5090271;28;21021;-76
2022/01/05 02:26:00;;;;;;;4.70;4.30;;;4.30;99.90;;;2.77;98.58;96335.38;5083164;28;20499;-75
2022/01/05 02:28:28;;;;;;;4.50;4.10;;;4.30;99.90;;;2.71;99.03;96324.72;5084802;28;20554;-75
2022/01/05 02:30:56;;;;;;;4.57;4.07;;;4.30;99.60;;;2.75;98.73;96337.44;5084160;28;20559;-75
2022/01/05 02:33:23;;;;;;;5.10;4.60;;;4.30;99.90;;;2.75;98.54;96339.28;5081493;28;20487;-75
2022/01/05 02:35:50;;;;;;;5.30;4.80;;;4.30;99.90;;;2.79;98.49;96346.66;5080408;28;20713;-75
2022/01/05 02:38:20;;;;;;;4.53;4.13;;;4.30;99.90;;;2.81;98.37;96325.94;5075371;28;20456;-74
2022/01/05 02:40:48;;;;;;;5.80;5.00;;;4.30;99.90;;;2.25;98.64;96250.72;5084891;28;20514;-75
2022/01/05 02:43:15;;;;;;;4.83;4.43;;;4.30;99.20;;;2.79;98.66;96325.31;5069073;28;20496;-75
2022/01/05 02:45:43;;;;;;;6.13;4.73;;;4.30;99.90;;;2.81;98.23;96328.63;5065709;28;20541;-75
2022/01/05 02:48:10;;;;;;;5.27;4.37;;;4.30;99.30;;;2.78;98.75;96310.34;5068648;28;20470;-75
2022/01/05 02:50:37;;;;;;;6.63;4.63;;;4.30;99.90;;;2.82;98.48;96322.25;5084235;28;20534;-75
2022/01/05 02:53:04;;;;;;;4.57;4.13;;;4.40;99.60;;;2.83;98.31;96329.22;5088731;28;20451;-75
2022/01/05 02:55:33;;;;;;;4.60;4.10;;;4.40;98.90;;;2.72;98.36;96307.69;5091019;28;20551;-74
2022/01/05 02:58:00;;;;;;;5.50;5.00;;;4.40;99.30;;;2.88;98.75;96339.28;5067066;28;20460;-77
2022/01/05 03:00:27;;;;;;;4.73;4.23;;;4.40;99.90;;;2.90;98.49;96349.72;5080722;28;20461;-75
2022/01/05 03:02:54;;;;;;;5.10;4.60;;;4.40;99.90;;;2.89;98.63;96332.09;5067150;28;20545;-74
2022/01/05 03:05:21;;;;;;;4.70;4.17;;;4.40;99.90;;;2.96;98.65;96347.06;5080126;28;20504;-75
2022/01/05 03:07:48;;;;;;;4.83;4.40;;;4.40;99.90;;;2.95;98.75;96349.91;5082711;28;20495;-75
2022/01/05 03:10:15;;;;;;;4.70;4.23;;;4.40;99.90;;;3.00;99.15;96355.47;5078832;28;20620;-75
2022/01/05 03:12:45;;;;;;;5.10;4.60;;;4.50;99.90;;;2.99;98.40;96351.16;5085099;28;20498;-75
2022/01/05 03:15:12;;;;;;;3.97;3.67;;;4.50;99.60;;;2.49;98.41;96251.09;5083488;28;22339;-75
2022/01/05 03:17:40;;;;;;;4.97;3.67;;;4.50;99.90;;;3.00;98.70;96343.97;5087457;28;20805;-76
2022/01/05 03:20:10;;;;;;;5.37;4.77;;;4.50;99.90;;;3.00;99.25;96344.78;5071410;28;20448;-76
2022/01/05 03:22:39;;;;;;;5.00;4.60;;;4.50;99.90;;;2.95;99.45;96339.25;5071387;28;20565;-76
2022/01/05 03:25:08;;;;;;;4.40;4.10;;;4.50;99.90;;;2.98;99.01;96344.19;5087946;28;20460;-77
2022/01/05 03:27:35;;;;;;;5.73;4.40;;;4.50;99.90;;;2.47;99.17;96252.34;5069782;28;20503;-76
2022/01/05 03:30:05;;;;;;;4.87;4.20;;;4.50;99.90;;;3.13;99.29;96329.78;5087602;28;20503;-75
2022/01/05 03:32:44;;;;;;;4.57;3.73;;;4.60;99.90;;;3.13;98.80;96346.59;5083339;28;20559;-76
2022/01/05 03:35:11;;;;;;;4.20;3.80;;;4.60;99.90;;;3.05;99.49;96331.63;5092937;28;20452;-75
2022/01/05 03:37:38;;;;;;;4.53;3.37;;;4.60;99.90;;;3.15;99.06;96339.19;5068704;28;20456;-75
2022/01/05 03:40:07;;;;;;;3.90;3.60;;;4.60;99.90;;;3.19;98.42;96342.28;5084692;28;20555;-76
2022/01/05 03:42:34;;;;;;;3.30;3.00;;;4.60;99.90;;;2.68;97.46;96259.28;5086707;28;20537;-76
2022/01/05 03:45:03;;;;;;;3.90;2.70;;;4.60;97.60;;;3.20;97.87;96333.25;5071618;28;20535;-74
2022/01/05 03:47:30;;;;;;;3.73;2.40;;;4.60;97.20;;;3.30;97.54;96336.31;5087558;28;20483;-75
2022/01/05 03:49:57;;;;;;;2.63;2.43;;;4.70;97.20;;;3.31;97.20;96348.63;5090891;28;20548;-75
2022/01/05 03:52:24;;;;;;;2.70;2.50;;;4.70;96.40;;;3.32;97.01;96341.41;5101245;28;20456;-75
2022/01/05 03:54:51;;;;;;;2.50;2.30;;;4.80;96.60;;;3.20;96.94;96333.25;5079621;28;21002;-75
2022/01/05 03:57:18;;;;;;;2.20;2.10;;;4.70;96.10;;;3.35;96.26;96339.16;5085609;28;20560;-75
2022/01/05 03:59:45;;;;;;;1.90;1.80;;;4.80;95.90;;;3.29;95.86;96342.69;5084382;28;20452;-74
2022/01/05 04:02:13;;;;;;;2.20;2.00;;;4.80;94.70;;;3.25;96.24;96344.94;5087133;28;20623;-74
2022/01/05 04:04:40;;;;;;;1.97;1.73;;;4.80;95.00;;;3.26;96.28;96338.56;5085250;28;20886;-74
2022/01/05 04:07:08;;;;;;;2.50;2.30;;;4.70;95.30;;;3.25;96.09;96344.09;5084055;28;20497;-74
2022/01/05 04:09:35;;;;;;;3.37;2.40;;;4.80;94.70;;;3.32;95.65;96350.25;5091449;28;20501;-74
2022/01/05 04:12:03;;;;;;;2.50;2.00;;;4.80;95.20;;;3.38;95.82;96348.59;5065484;28;20556;-75
2022/01/05 04:14:30;;;;;;;1.97;1.77;;;4.80;94.60;;;2.94;95.78;96279.75;5088784;28;20866;-75
2022/01/05 04:16:57;;;;;;;2.03;1.90;;;4.80;94.70;;;3.29;95.91;96350.69;5070086;28;20496;-75
2022/01/05 04:19:25;;;;;;;2.20;2.00;;;4.80;95.00;;;3.29;96.84;96352.53;5065347;28;20555;-75
2022/01/05 04:21:52;;;;;;;3.30;2.00;;;4.80;95.40;;;3.37;96.22;96352.31;5085250;28;20457;-76
2022/01/05 04:24:19;;;;;;;1.87;1.70;;;4.80;95.00;;;3.40;96.45;96350.00;5091564;28;20469;-75
2022/01/05 04:26:46;;;;;;;3.23;2.93;;;4.90;95.30;;;3.46;95.79;96352.88;5096647;28;21037;-75
2022/01/05 04:29:13;;;;;;;2.40;2.20;;;4.90;95.30;;;3.39;96.06;96324.34;5064890;28;20572;-76
2022/01/05 04:31:41;;;;;;;1.87;1.77;;;4.90;95.50;;;3.46;96.04;96355.56;5070453;28;20488;-76
2022/01/05 04:34:07;;;;;;;1.53;1.43;;;4.90;94.80;;;3.37;95.74;96325.59;5087206;28;20478;-75
2022/01/05 04:36:36;;;;;;;1.20;1.20;;;5.00;94.50;;;3.52;96.22;96344.00;5084669;28;20547;-75
2022/01/05 04:39:03;;;;;;;1.53;1.43;;;5.00;94.90;;;3.53;95.21;96351.84;5093912;28;20463;-74
2022/01/05 04:41:30;;;;;;;4.17;1.40;;;5.00;94.20;;;3.59;95.46;96344.81;5084421;28;20487;-74
2022/01/05 04:43:57;;;;;;;3.60;1.23;;;5.00;94.20;;;3.60;94.87;96326.94;5089830;28;21059;-75
2022/01/05 04:46:24;;;;;;;1.33;1.23;;;5.10;93.90;;;3.68;94.61;96343.53;5091611;28;20484;-76
2022/01/05 04:48:51;;;;;;;1.80;1.70;;;5.10;93.80;;;3.65;94.90;96341.28;5087343;28;20559;-76
2022/01/05 04:51:18;;;;;;;1.50;1.40;;;5.10;94.50;;;3.78;93.81;96352.97;5088881;28;20986;-75
2022/01/05 04:53:46;;;;;;;2.83;1.43;;;5.20;93.10;;;3.73;95.20;96358.13;5084349;28;21006;-74
2022/01/05 04:56:13;;;;;;;2.03;1.73;;;5.20;93.90;;;3.75;94.24;96348.03;5069284;28;20551;-75
2022/01/05 04:58:40;;;;;;;1.70;1.60;;;5.20;93.80;;;3.71;94.95;96347.66;5086672;28;20464;-74
2022/01/05 05:01:07;;;;;;;1.50;1.40;;;5.20;94.00;;;3.69;95.38;96350.50;5087776;28;20463;-73
2022/01/05 05:03:34;;;;;;;1.50;1.40;;;5.20;94.00;;;3.72;95.44;96346.59;5098100;28;20550;-74
2022/01/05 05:06:01;;;;;;;2.27;1.50;;;5.10;94.50;;;3.78;95.02;96347.63;5084242;28;20548;-74
2022/01/05 05:08:28;;;;;;;1.90;1.70;;;5.20;93.90;;;3.78;94.22;96347.63;5064606;28;20875;-76
2022/01/05 05:10:57;;;;;;;1.77;1.57;;;5.20;93.10;;;3.78;94.81;96344.94;5088587;28;20539;-78
2022/01/05 05:13:24;;;;;;;1.90;1.53;;;5.30;93.70;;;3.92;94.11;96343.00;5085743;28;20533;-77
2022/01/05 05:15:51;;;;;;;2.17;1.60;;;5.30;93.60;;;3.81;93.39;96348.00;5088852;28;20555;-76
2022/01/05 05:18:18;;;;;;;1.80;1.50;;;5.30;92.80;;;3.87;94.34;96341.00;5067964;28;20484;-77
2022/01/05 05:20:45;;;;;;;1.70;1.60;;;5.30;93.40;;;3.32;94.22;96266.66;5067082;28;20546;-77
2022/01/05 05:23:12;;;;;;;2.40;2.03;;;5.30;93.20;;;3.78;93.82;96347.63;5089192;28;20548;-76
2022/01/05 05:25:39;;;;;;;1.27;1.17;;;5.30;93.10;;;3.75;93.58;96348.03;5080373;28;20453;-76
2022/01/05 05:28:07;;;;;;;2.30;1.10;;;5.30;92.70;;;3.70;93.44;96335.31;5087726;28;20464;-75
2022/01/05 05:30:35;;;;;;;1.60;1.50;;;5.20;92.20;;;3.76;92.69;96349.69;5067595;28;20464;-75
2022/01/05 05:33:02;;;;;;;1.20;1.00;;;5.20;91.90;;;3.76;92.76;96347.81;5086464;28;20464;-75
2022/01/05 05:35:30;;;;;;;1.10;1.00;;;5.20;92.00;;;3.81;92.86;96352.53;5074213;28;20549;-74
2022/01/05 05:37:58;;;;;;;1.30;1.20;;;5.20;92.20;;;3.68;93.30;96338.19;5087515;28;20476;-75
2022/01/05 05:40:25;;;;;;;1.40;1.17;;;5.20;92.40;;;3.83;93.54;96358.47;5085022;28;20522;-80
2022/01/05 05:42:53;;;;;;;2.30;1.27;;;5.20;92.80;;;3.92;92.43;96349.19;5087586;28;20492;-80
2022/01/05 05:45:21;;;;;;;3.33;1.10;;;5.30;92.00;;;3.76;93.30;96342.47;5069893;28;20947;-79
2022/01/05 05:47:48;;;;;;;1.37;1.27;;;5.20;92.10;;;3.76;93.45;96329.13;5088008;28;20530;-79
2022/01/05 05:50:15;;;;;;;0.83;0.83;;;5.30;92.60;;;3.96;91.25;96330.88;5089702;28;20536;-82
2022/01/05 05:52:43;;;;;;;2.30;1.23;;;5.40;91.10;;;3.94;92.06;96336.44;5100887;28;20469;-78
2022/01/05 05:55:10;;;;;;;1.80;1.20;;;5.30;91.40;;;3.95;92.24;96343.41;5068389;28;20547;-78
2022/01/05 05:57:37;;;;;;;3.10;2.90;;;5.40;91.50;;;3.99;90.86;96332.28;5082519;28;20837;-79
2022/01/05 06:00:07;;;;;;;1.00;1.00;;;5.40;90.90;;;3.82;92.72;96343.47;5081964;28;21133;-80
2022/01/05 06:02:35;;;;;;;1.43;1.30;;;5.30;91.90;;;3.76;92.93;96339.00;5088549;28;20509;-80
2022/01/05 06:05:02;;;;;;;1.30;1.20;;;5.30;92.10;;;3.91;92.05;96331.53;5085544;28;20462;-87
2022/01/05 06:07:29;;;;;;;1.27;1.17;;;5.40;91.70;;;4.02;91.73;96345.22;5088275;28;20849;-70
2022/01/05 06:09:58;;;;;;;1.83;1.27;;;5.40;91.60;;;3.89;92.35;96356.81;5082972;28;20573;-72
2022/01/05 06:12:25;;;;;;;1.47;1.00;;;5.30;91.40;;;3.86;91.97;96355.38;5065235;28;20844;-72
2022/01/05 06:14:52;;;;;;;2.00;1.40;;;5.30;91.50;;;3.91;93.05;96360.91;5063914;28;20536;-79
2022/01/05 06:17:20;;;;;;;0.90;0.90;;;5.30;92.00;;;3.99;91.88;96359.00;5068601;28;20572;-85
2022/01/05 06:19:48;;;;;;;0.87;0.87;;;5.40;91.60;;;3.49;91.75;96285.69;5090649;28;20452;-80
2022/01/05 06:22:17;;;;;;;1.50;1.10;;;5.40;91.00;;;3.92;91.44;96349.19;5085567;28;20523;-81
2022/01/05 06:24:44;;;;;;;0.93;0.90;;;5.40;91.30;;;3.85;91.76;96351.06;5103117;28;20457;-81
2022/01/05 06:27:12;;;;;;;1.30;1.00;;;5.30;91.20;;;4.02;91.12;96351.38;5082853;28;20494;-75
2022/01/05 06:29:40;;;;;;;1.30;1.20;;;5.40;91.00;;;3.79;92.30;96335.91;5105272;28;20492;-73
2022/01/05 06:32:08;;;;;;;1.70;1.00;;;5.40;91.50;;;4.00;91.65;96382.84;5104294;28;20475;-77
2022/01/05 06:34:35;;;;;;;1.80;0.60;;;5.40;91.20;;;3.97;91.73;96388.63;5103236;28;20480;-77
2022/01/05 06:37:05;;;;;;;0.83;0.83;;;5.40;91.50;;;3.74;92.79;96389.94;5097447;28;20477;-77
2022/01/05 06:39:32;;;;;;;1.50;0.90;;;5.20;92.20;;;3.73;92.84;96414.22;5109729;28;20480;-75
2022/01/05 06:41:59;;;;;;;1.07;0.97;;;5.20;91.70;;;3.35;92.34;96424.59;5110492;28;20510;-79
2022/01/05 06:44:27;;;;;;;0.70;0.70;;;5.10;91.30;;;3.38;93.58;96456.19;5090505;28;20432;-76
2022/01/05 06:46:54;;;;;;;0.70;0.60;;;4.90;92.00;;;3.20;94.05;96464.88;5110252;28;20884;-75
2022/01/05 06:49:23;;;;;;;0.70;0.70;;;4.70;92.50;;;2.30;92.76;96382.53;5114473;28;20444;-77
2022/01/05 06:51:51;;;;;;;1.50;0.80;;;4.50;91.30;;;2.75;93.94;96492.13;5111961;28;20451;-73
2022/01/05 06:54:20;;;;;;;0.80;0.80;;;4.30;92.30;;;2.60;94.63;96488.81;5114393;28;20551;-73
2022/01/05 06:56:47;;;;;;;1.20;0.90;;;4.20;93.10;;;2.36;94.63;96496.38;5106652;28;20452;-73
2022/01/05 06:59:14;;;;;;;1.10;0.80;;;4.10;93.40;;;2.49;95.46;96522.25;5125656;28;20463;-75
2022/01/05 07:01:42;;;;;;;0.87;0.87;;;4.00;93.80;;;2.43;94.23;96539.84;5113354;28;20446;-76
2022/01/05 07:04:09;;;;;;;0.50;0.40;;;4.00;92.70;;;2.30;92.90;96539.81;5116443;28;20512;-73
2022/01/05 07:06:36;;;;;;;0.37;0.30;;;3.90;91.20;;;2.12;92.09;96560.66;5094604;28;20460;-75
2022/01/05 07:09:03;;;;;;;1.00;0.27;;;3.70;90.20;;;1.84;90.93;96560.69;5108523;28;20515;-73
2022/01/05 07:11:32;;;;;;;0.40;0.30;;;3.60;88.50;;;1.82;91.60;96576.03;5095402;28;20448;-75
2022/01/05 07:13:59;;;;;;;1.20;0.47;;;3.40;89.90;;;1.64;91.07;96582.69;5087905;28;20460;-70
2022/01/05 07:16:26;;;;;;;0.73;0.40;;;3.30;88.50;;;1.69;91.64;96588.25;5069378;28;20460;-74
2022/01/05 07:18:53;;;;;;;1.33;0.70;;;3.30;90.10;;;1.57;91.37;96595.09;5089663;28;20471;-70
2022/01/05 07:21:20;;;;;;;0.50;0.50;;;3.20;88.50;;;1.53;90.97;96628.47;5081641;28;20456;-67
2022/01/05 07:23:47;;;;;;;0.70;0.50;;;3.10;87.80;;;1.49;91.39;96638.66;5088160;28;20463;-71
2022/01/05 07:26:14;;;;;;;1.13;0.50;;;3.10;89.50;;;1.48;91.38;96645.00;5097003;28;20463;-77
2022/01/05 07:28:42;;;;;;;0.63;0.50;;;3.10;89.50;;;1.44;90.46;96661.53;5079481;28;20579;-71
2022/01/05 07:31:09;;;;;;;0.70;0.47;;;3.00;87.30;;;1.38;90.87;96661.31;5070249;28;20468;-72
2022/01/05 07:33:37;;;;;;;1.00;0.60;;;3.00;88.40;;;1.39;91.03;96670.13;5085092;28;20472;-70
2022/01/05 07:36:04;;;;;;;0.97;0.80;;;3.00;88.90;;;1.30;90.76;96674.75;5084873;28;20817;-73
2022/01/05 07:38:31;;;;;;;0.77;0.77;;;2.90;88.20;;;1.26;91.17;96670.78;5082850;28;20475;-74
2022/01/05 07:40:58;;;;;;;0.63;0.63;;;2.90;88.90;;;1.19;93.36;96675.25;5107369;28;20448;-71
2022/01/05 07:43:25;;;;;;;0.73;0.70;;;2.80;91.20;;;1.07;94.16;96688.22;5080913;28;20529;-73
2022/01/05 07:45:54;;;;;;;0.90;0.80;;;2.70;92.40;;;1.00;94.80;96690.81;5098170;28;20474;-70
2022/01/05 07:48:21;;;;;;;0.87;0.87;;;2.60;93.20;;;0.86;95.19;96684.47;5110969;28;20503;-70
2022/01/05 07:50:48;;;;;;;1.70;0.93;;;2.70;93.40;;;0.88;95.38;96709.06;5106686;28;20532;-71
2022/01/05 07:53:15;;;;;;;0.80;0.80;;;2.60;93.00;;;0.79;95.37;96703.00;5096267;28;20498;-73
2022/01/05 07:55:42;;;;;;;2.20;1.20;;;2.50;93.30;;;0.84;95.59;96713.94;5088134;28;20540;-71
2022/01/05 07:58:09;;;;;;;1.40;1.30;;;2.50;93.60;;;0.91;95.41;96721.16;5088318;28;20459;-74
2022/01/05 08:00:37;;;;;;;1.50;1.40;;;2.50;94.40;;;0.94;96.19;96720.78;5087310;28;20475;-72
2022/01/05 08:03:05;;;;;;;5.10;1.67;;;2.50;94.50;;;1.03;95.80;96721.50;5089080;28;20499;-71
2022/01/05 08:05:32;;;;;;;1.50;1.40;;;2.60;95.20;;;1.11;94.63;96732.84;5084070;28;20483;-74
2022/01/05 08:08:01;;;;;;;1.47;1.37;;;2.70;93.00;;;1.06;95.05;96740.59;5083970;28;20496;-75
2022/01/05 08:10:28;;;;;;;2.83;1.93;;;2.70;93.00;;;1.18;94.47;96745.44;5067589;28;20544;-71
2022/01/05 08:12:55;;;;;;;4.03;2.40;;;2.70;93.00;;;1.16;93.25;96744.81;5067722;28;20750;-74
2022/01/05 08:15:22;;;;;;;2.73;2.50;;;2.70;91.50;;;1.20;92.86;96757.53;5085493;28;20555;-77
2022/01/05 08:17:49;;;;;;;2.27;2.03;;;2.70;91.10;;;1.18;92.57;96762.22;5089905;28;20525;-76
2022/01/05 08:20:17;;;;;;;2.80;2.50;;;2.80;90.50;;;0.93;91.46;96729.78;5094192;28;20456;-74
2022/01/05 08:22:47;;;;;;;3.47;2.30;;;2.80;88.30;;;1.18;91.25;96782.69;5070960;28;20456;-73
2022/01/05 08:25:17;;;;;;;4.53;3.30;;;2.80;88.80;;;1.18;89.04;96790.66;5094224;28;20457;-74
2022/01/05 08:27:47;;;;;;;5.00;2.17;;;2.80;84.70;;;1.20;88.47;96786.78;5070885;28;20473;-75
2022/01/05 08:30:16;;;;;;;6.87;2.87;;;2.80;84.40;;;1.08;87.62;96782.97;5090249;28;20483;-73
2022/01/05 08:32:43;;;;;;;3.00;2.00;;;2.70;82.80;;;1.10;88.44;96795.06;5088016;28;20500;-73
2022/01/05 08:35:11;;;;;;;6.30;1.90;;;2.70;83.80;;;1.19;88.59;96797.63;5088332;28;20467;-74
2022/01/05 08:37:43;;;;;;;1.90;1.67;;;2.80;84.40;;;1.16;86.88;96806.81;5084854;28;20579;-73
2022/01/05 08:40:12;;;;;;;4.60;2.17;;;2.80;82.40;;;1.15;87.72;96809.66;5083692;28;20547;-76
2022/01/05 08:42:40;;;;;;;6.23;2.40;;;2.70;83.40;;;1.26;87.83;96812.69;5087933;28;20468;-77
2022/01/05 08:45:08;;;;;;;3.90;2.13;;;2.80;84.10;;;1.24;87.63;96827.16;5084839;28;20794;-75
2022/01/05 08:47:35;;;;;;;3.97;2.50;;;2.90;83.30;;;1.27;87.68;96826.78;5085888;28;20475;-76
2022/01/05 08:50:04;;;;;;;9.13;3.00;;;2.90;83.70;;;1.24;87.88;96827.16;5084742;28;20598;-72
2022/01/05 08:52:31;;;;;;;3.13;2.30;;;2.80;83.30;;;1.26;87.17;96838.44;5070939;28;20531;-74
2022/01/05 08:54:59;;;;;;;6.23;2.23;;;2.90;82.60;;;1.20;85.52;96831.22;5086941;28;20492;-75
2022/01/05 08:57:26;;;;;;;6.80;2.53;;;2.80;81.00;;;1.28;87.15;96836.44;5085693;28;20517;-76
2022/01/05 08:59:54;;;;;;;5.27;2.83;;;2.90;82.80;;;1.34;85.17;96843.69;5065367;28;20509;-72
2022/01/05 09:02:21;;;;;;;2.90;2.67;;;2.90;80.90;;;1.33;85.51;96834.06;5083790;28;20471;-75
2022/01/05 09:04:51;;;;;;;6.80;2.80;;;2.90;80.50;;;1.39;84.63;96851.13;5062424;28;20475;-76
2022/01/05 09:07:19;;;;;;;5.40;3.10;;;3.00;80.30;;;1.46;84.84;96854.69;5080302;28;20476;-76
2022/01/05 09:09:46;;;;;;;4.43;2.93;;;3.00;80.40;;;1.44;84.40;96867.34;5084361;28;20942;-74
2022/01/05 09:12:15;;;;;;;6.43;2.90;;;3.00;79.90;;;1.40;84.21;96858.91;5093467;28;20584;-74
2022/01/05 09:14:42;;;;;;;4.53;3.30;;;3.00;79.90;;;1.47;84.61;96850.19;5062756;28;20551;-76
2022/01/05 09:17:10;;;;;;;5.47;3.93;;;3.00;80.20;;;1.41;84.58;96857.06;5083829;28;20490;-77
2022/01/05 09:19:37;;;;;;;6.10;3.60;;;3.00;80.10;;;1.35;83.73;96881.75;5082948;28;20597;-78
2022/01/05 09:22:05;;;;;;;11.40;4.60;;;2.90;79.10;;;1.33;83.70;96881.97;5082136;28;20456;-77
2022/01/05 09:24:33;;;;;;;6.03;3.87;;;2.90;79.40;;;1.12;83.19;96882.69;5086774;28;20466;-75
2022/01/05 09:27:03;;;;;;;2.70;1.67;;;2.80;78.70;;;1.13;83.92;96902.97;5070588;28;20801;-72
2022/01/05 09:29:32;;;;;;;9.70;3.60;;;2.80;79.00;;;1.09;83.04;96897.19;5088004;28;20547;-73
2022/01/05 09:32:03;;;;;;;4.47;2.90;;;2.70;78.60;;;0.91;82.92;96910.84;5092925;28;20456;-68
2022/01/05 09:34:30;;;;;;;6.77;3.50;;;2.60;77.90;;;0.83;83.71;96909.09;5080172;28;20970;-74
2022/01/05 09:37:01;;;;;;;5.00;3.80;;;2.50;78.50;;;0.81;83.54;96907.59;5081993;28;20452;-72
2022/01/05 09:42:14;;;;;;;8.40;4.23;;;2.50;78.70;;;0.78;83.47;96908.78;5087882;28;20460;-72
2022/01/05 09:44:45;;;;;;;4.93;3.03;;;2.40;78.40;;;0.77;82.40;96927.59;5087541;28;20490;-76
2022/01/05 09:47:32;;;;;;;6.30;4.00;;;2.40;77.60;;;0.79;81.86;96923.72;5084744;28;20572;-75
2022/01/05 09:50:04;;;;;;;5.87;3.50;;;2.40;77.20;;;0.78;82.43;96921.28;5084139;28;20312;-77
2022/01/05 09:52:32;;;;;;;5.30;3.50;;;2.40;77.50;;;0.89;82.47;96933.31;5085760;28;20460;-74
2022/01/05 09:55:01;;;;;;;4.00;3.40;;;2.50;77.70;;;1.01;82.54;96923.88;5082682;28;20486;-74
2022/01/05 09:57:29;;;;;;;4.37;3.77;;;2.60;78.00;;;0.78;81.62;96887.50;5094105;28;20523;-74
2022/01/05 09:59:58;;;;;;;7.03;3.73;;;2.70;77.50;;;1.19;81.83;96939.47;5085594;28;20539;-79
2022/01/05 10:02:25;;;;;;;4.57;3.33;;;2.70;77.50;;;1.32;81.04;96940.69;5064597;28;20468;-76
2022/01/05 10:05:03;;;;;;;8.30;2.77;;;2.80;77.00;;;1.21;79.01;96920.69;5077447;28;20471;-77
2022/01/05 10:07:30;;;;;;;2.87;2.57;;;2.90;75.00;;;1.17;77.59;96949.47;5064022;28;20503;-76
2022/01/05 10:09:57;;;;;;;4.20;1.90;;;2.80;73.50;;;1.02;78.50;96949.47;5088124;28;21077;-75
2022/01/05 10:12:24;;;;;;;2.10;1.13;;;2.70;73.90;;;0.96;76.98;96956.34;5084844;28;20484;-74
2022/01/05 10:14:51;;;;;;;3.50;2.00;;;2.60;72.70;;;0.95;77.26;96960.00;5063039;28;21302;-71
2022/01/05 10:17:28;;;;;;;3.20;1.77;;;2.60;72.30;;;0.67;75.54;96935.78;5085458;28;20477;-73
2022/01/05 10:20:00;;;;;;;2.57;1.63;;;2.50;70.60;;;0.73;76.11;96969.66;5073990;28;20501;-73
2022/01/05 10:22:33;;;;;;;11.27;2.63;;;2.40;71.00;;;0.68;76.59;96974.66;5084090;28;20469;-77
2022/01/05 10:25:02;;;;;;;4.40;1.90;;;2.30;71.10;;;0.61;75.38;96979.91;5101161;28;21002;-73
2022/01/05 10:27:29;;;;;;;3.33;1.60;;;2.20;70.10;;;0.56;74.96;96967.13;5085653;28;20468;-77
2022/01/05 10:30:00;;;;;;;2.53;1.63;;;2.20;69.30;;;0.54;75.65;96973.63;5084902;28;20468;-72
2022/01/05 10:32:30;;;;;;;5.00;1.40;;;2.20;69.80;;;0.63;74.88;96987.69;5060264;28;20463;-76
2022/01/05 10:35:11;;;;;;;5.90;1.47;;;2.20;69.40;;;0.73;74.69;96977.66;5066967;28;20813;-77
2022/01/05 10:37:41;;;;;;;2.97;1.73;;;2.30;69.20;;;0.87;72.42;96993.84;5079904;28;20562;-72
2022/01/05 10:40:14;;;;;;;5.73;1.90;;;2.50;67.50;;;0.84;71.90;96987.88;5079375;28;20517;-72